LiveATC.Net - Listen to live air traffic control over the Internet!


ICAO: KAEG  IATA: AEG   Airport: Double Eagle II Airport
City: Albuquerque   State/Province: New Mexico
Country: United States   Continent: North America
KAEG METAR Weather: KAEG 181950Z 04010G14KT 10SM SCT090 27/12 A3024 RMK LTG DSNT W AND NW
KAEG ADS-B Flight Tracking (ADSBExchange)
KAEG Flight Activity (FlightAware)
KAEG Airport Info   (iFlightPlanner)
KAEG VFR Sectional Chart   (iFlightPlanner) 
KAEG IFR Low Altitude Chart   (iFlightPlanner) 
KAEG IFR High Altitude Chart   (iFlightPlanner) 

KAEG Twr/App
Feed Status: UP   Listeners: 0
Listen in your browser - HTML5 player (in browser, HTML5)
Click here to listen with your own player (launches your MP3 player)
Archive Access: KAEG Twr/App
FacilityFrequency
Double Eagle II Ground121.625
Double Eagle II Tower120.150
Double Eagle II Tower Clearance124.800

NOTICE

Unauthorized use prohibited. See LiveATC.net Terms of Service


Airport/ARTCC Code
Frequency Search
(e.g., 124.400, 128.75)
Site-wide search
 


Browse Feeds
Top 50 Feeds
HF Oceanic Feeds
Coverage Map
Bad Weather Areas

LiveATC FAQ
Offer LiveATC feed
Contact LiveATC.net
Press Inquiries

LiveATC on iPhone
LiveATC on Android

LiveATC Mobile
(Mobile browser)

ATC Audio Archives
Interesting Recordings

LiveATC Forums


Home Page
About LiveATC.net


Terms of Use
Privacy Policy

AIRMETs/SIGMETs

FAA Airport Status
NAS Status
Arrival Demand


Server Software By:
Icecast.org
Liquidsoap